createdAt,value
2022-08-30T00:01:16.027Z,100502.88
2022-08-30T00:03:45.935Z,100489.28
2022-08-30T00:06:16.092Z,100485.94
2022-08-30T00:08:44.948Z,100478.84
2022-08-30T00:11:16.828Z,100481.78
2022-08-30T00:13:45.705Z,100473.28
2022-08-30T00:16:13.347Z,100463.34
2022-08-30T00:18:41.185Z,100460.06
2022-08-30T00:21:08.830Z,100471.50
2022-08-30T00:23:36.126Z,100466.31
2022-08-30T00:26:03.359Z,100468.28
2022-08-30T00:28:32.234Z,100463.94
2022-08-30T00:30:59.239Z,100459.31
2022-08-30T00:33:26.289Z,100459.66
2022-08-30T00:35:53.297Z,100474.09
2022-08-30T00:38:20.497Z,100484.06
2022-08-30T00:40:47.603Z,100469.81
2022-08-30T00:43:23.160Z,100452.69
2022-08-30T00:45:52.803Z,100465.44
2022-08-30T00:48:19.863Z,100450.53
2022-08-30T00:50:56.775Z,100465.06
2022-08-30T00:53:29.619Z,100472.31
2022-08-30T00:55:59.668Z,100469.84
2022-08-30T00:58:38.016Z,100467.06
2022-08-30T01:01:08.447Z,100464.75
2022-08-30T01:03:38.790Z,100462.91
2022-08-30T01:06:07.643Z,100466.66
2022-08-30T01:08:35.259Z,100468.63
2022-08-30T01:11:04.396Z,100461.53
2022-08-30T01:13:33.782Z,100452.88
2022-08-30T01:16:02.641Z,100461.56
2022-08-30T01:18:32.088Z,100447.59
2022-08-30T01:21:15.594Z,100443.34
2022-08-30T01:23:45.926Z,100438.31
2022-08-30T01:26:15.876Z,100439.59
2022-08-30T01:28:48.703Z,100451.09
2022-08-30T01:31:16.338Z,100451.84
2022-08-30T01:33:43.678Z,100456.16
2022-08-30T01:36:14.065Z,100464.56
2022-08-30T01:38:56.912Z,100458.47
2022-08-30T01:41:35.234Z,100473.59
2022-08-30T01:44:07.465Z,100468.19
2022-08-30T01:46:40.313Z,100468.81
2022-08-30T01:49:12.958Z,100479.00
2022-08-30T01:51:40.580Z,100468.94
2022-08-30T01:54:08.246Z,100475.84
2022-08-30T01:56:36.345Z,100478.03
2022-08-30T01:59:04.921Z,100473.44
2022-08-30T02:01:36.990Z,100472.06
2022-08-30T02:04:05.443Z,100458.03
2022-08-30T02:06:32.540Z,100448.50
2022-08-30T02:08:59.872Z,100438.88
2022-08-30T02:11:26.965Z,100432.84
2022-08-30T02:13:53.994Z,100431.03
2022-08-30T02:16:23.924Z,100440.88
2022-08-30T02:18:54.118Z,100446.31
2022-08-30T02:21:21.521Z,100456.66
2022-08-30T02:23:48.656Z,100444.38
2022-08-30T02:26:17.554Z,100442.53
2022-08-30T02:28:49.868Z,100452.53
2022-08-30T02:31:20.771Z,100452.13
2022-08-30T02:33:50.844Z,100441.41
2022-08-30T02:36:19.165Z,100454.47
2022-08-30T02:38:47.133Z,100444.22
2022-08-30T02:41:14.883Z,100442.31
2022-08-30T02:43:41.887Z,100439.72
2022-08-30T02:46:09.044Z,100449.69
2022-08-30T02:48:36.438Z,100445.31
2022-08-30T02:51:11.172Z,100436.28
2022-08-30T02:53:40.383Z,100434.28
2022-08-30T02:56:07.972Z,100436.88
2022-08-30T02:58:34.982Z,100435.50
2022-08-30T03:01:02.383Z,100438.41
2022-08-30T03:03:29.485Z,100436.53
2022-08-30T03:05:56.511Z,100435.91
2022-08-30T03:08:23.998Z,100436.63
2022-08-30T03:10:51.601Z,100442.03
2022-08-30T03:13:18.606Z,100444.22
2022-08-30T03:15:45.674Z,100450.50
2022-08-30T03:18:12.606Z,100445.59
2022-08-30T03:20:42.181Z,100444.22
2022-08-30T03:23:21.626Z,100440.34
2022-08-30T03:25:49.046Z,100443.88
2022-08-30T03:28:16.098Z,100442.00
2022-08-30T03:30:43.081Z,100446.00
2022-08-30T03:33:10.038Z,100439.19
2022-08-30T03:35:38.467Z,100429.84
2022-08-30T03:38:06.382Z,100433.28
2022-08-30T03:40:33.546Z,100434.31
2022-08-30T03:43:01.021Z,100432.38
2022-08-30T03:45:28.471Z,100442.91
2022-08-30T03:47:55.499Z,100447.16
2022-08-30T03:50:22.799Z,100447.28
2022-08-30T03:52:49.852Z,100442.72
2022-08-30T03:55:17.055Z,100443.03
2022-08-30T03:57:44.073Z,100432.50
2022-08-30T04:00:12.156Z,100432.69
2022-08-30T04:02:40.049Z,100424.84
2022-08-30T04:05:09.172Z,100433.63
2022-08-30T04:07:36.595Z,100430.00
2022-08-30T04:10:06.799Z,100428.03
2022-08-30T04:12:33.930Z,100435.94
2022-08-30T04:15:00.844Z,100440.63
2022-08-30T04:17:28.334Z,100427.75
2022-08-30T04:19:55.362Z,100437.94
2022-08-30T04:22:22.324Z,100437.75
2022-08-30T04:24:49.324Z,100438.38
2022-08-30T04:27:20.189Z,100430.53
2022-08-30T04:29:48.023Z,100435.47
2022-08-30T04:32:16.423Z,100440.75
2022-08-30T04:34:44.472Z,100445.09
2022-08-30T04:37:11.666Z,100446.91
2022-08-30T04:39:39.086Z,100450.16
2022-08-30T04:42:06.913Z,100436.59
2022-08-30T04:44:34.038Z,100455.16
2022-08-30T04:47:01.175Z,100445.91
2022-08-30T04:49:28.330Z,100432.31
2022-08-30T04:51:55.816Z,100446.16
2022-08-30T04:54:22.895Z,100441.22
2022-08-30T04:56:49.886Z,100438.22
2022-08-30T04:59:18.055Z,100433.31
2022-08-30T05:01:46.097Z,100436.31
2022-08-30T05:04:15.328Z,100447.25
2022-08-30T05:06:42.999Z,100447.44
2022-08-30T05:09:10.027Z,100445.03
2022-08-30T05:11:38.573Z,100465.91
2022-08-30T05:14:05.919Z,100458.69
2022-08-30T05:16:33.090Z,100464.56
2022-08-30T05:19:00.319Z,100471.38
2022-08-30T05:21:28.802Z,100478.38
2022-08-30T05:24:00.006Z,100483.69
2022-08-30T05:26:32.275Z,100488.69
2022-08-30T05:28:59.709Z,100494.03
2022-08-30T05:31:33.572Z,100491.78
2022-08-30T05:34:01.990Z,100486.44
2022-08-30T05:36:32.343Z,100486.59
2022-08-30T05:39:00.579Z,100475.63
2022-08-30T05:41:28.621Z,100469.47
2022-08-30T05:43:58.320Z,100466.28
2022-08-30T05:46:29.506Z,100477.88
2022-08-30T05:48:57.257Z,100473.19
2022-08-30T05:51:28.771Z,100481.19
2022-08-30T05:53:58.177Z,100468.84
2022-08-30T05:56:30.991Z,100470.91
2022-08-30T05:58:58.814Z,100481.06
2022-08-30T06:01:28.292Z,100476.53
2022-08-30T06:04:03.007Z,100483.50
2022-08-30T06:06:35.144Z,100471.69
2022-08-30T06:09:08.546Z,100472.72
2022-08-30T06:11:36.561Z,100477.28
2022-08-30T06:14:05.332Z,100474.09
2022-08-30T06:16:33.169Z,100471.56
2022-08-30T06:19:00.483Z,100466.06
2022-08-30T06:21:35.009Z,100478.00
2022-08-30T06:24:04.497Z,100476.78
2022-08-30T06:28:59.910Z,100478.22
2022-08-30T06:31:27.258Z,100483.88
2022-08-30T06:33:56.030Z,100482.63
2022-08-30T06:36:25.531Z,100488.00
2022-08-30T06:38:56.175Z,100489.09
2022-08-30T06:41:27.410Z,100490.84
2022-08-30T06:43:55.763Z,100481.75
2022-08-30T06:46:28.595Z,100492.50
2022-08-30T06:48:57.151Z,100494.53
2022-08-30T06:51:31.482Z,100493.78
2022-08-30T06:53:59.577Z,100494.13
2022-08-30T06:56:27.736Z,100485.06
2022-08-30T06:58:55.220Z,100492.63
2022-08-30T07:01:25.816Z,100481.47
2022-08-30T07:03:53.855Z,100484.78
2022-08-30T07:06:22.372Z,100483.44
2022-08-30T07:08:56.008Z,100486.97
2022-08-30T07:11:37.057Z,100490.41
2022-08-30T07:14:06.526Z,100486.63
2022-08-30T07:16:34.275Z,100488.00
2022-08-30T07:19:05.539Z,100477.94
2022-08-30T07:21:43.242Z,100475.34
2022-08-30T07:24:12.506Z,100479.03
2022-08-30T07:26:51.660Z,100477.25
2022-08-30T07:29:19.006Z,100476.63
2022-08-30T07:31:47.067Z,100467.47
2022-08-30T07:34:14.073Z,100483.53
2022-08-30T07:36:41.015Z,100477.06
2022-08-30T07:39:08.357Z,100476.44
2022-08-30T07:41:38.781Z,100477.72
2022-08-30T07:44:08.261Z,100475.28
2022-08-30T07:46:36.032Z,100485.03
2022-08-30T07:49:04.093Z,100474.84
2022-08-30T07:51:32.782Z,100476.69
2022-08-30T07:54:00.604Z,100468.72
2022-08-30T07:56:27.894Z,100473.41
2022-08-30T07:58:55.446Z,100469.13
2022-08-30T08:01:23.620Z,100464.41
2022-08-30T08:03:51.824Z,100465.00
2022-08-30T08:06:21.635Z,100460.88
2022-08-30T08:08:50.063Z,100460.81
2022-08-30T08:11:29.334Z,100450.38
2022-08-30T08:13:58.609Z,100455.38
2022-08-30T08:16:31.295Z,100455.44
2022-08-30T08:18:58.318Z,100454.13
2022-08-30T08:21:26.285Z,100454.88
2022-08-30T08:23:53.647Z,100449.28
2022-08-30T08:26:21.628Z,100455.56
2022-08-30T08:28:48.896Z,100457.75
2022-08-30T08:31:29.903Z,100445.41
2022-08-30T08:34:04.187Z,100436.44
2022-08-30T08:36:33.226Z,100435.34
2022-08-30T08:39:01.704Z,100444.44
2022-08-30T08:41:52.958Z,100432.78
2022-08-30T08:45:03.638Z,100430.78
2022-08-30T08:47:57.036Z,100436.34
2022-08-30T08:50:24.852Z,100427.47
2022-08-30T08:53:46.193Z,100428.13
2022-08-30T08:56:17.170Z,100430.91
2022-08-30T08:58:52.555Z,100435.50
2022-08-30T09:01:28.057Z,100435.03
2022-08-30T09:03:59.461Z,100436.47
2022-08-30T09:07:01.697Z,100435.28
2022-08-30T09:09:40.416Z,100425.25
2022-08-30T09:12:11.181Z,100429.19
2022-08-30T09:14:46.569Z,100431.78
2022-08-30T09:17:19.022Z,100423.09
2022-08-30T09:19:52.023Z,100410.38
2022-08-30T09:22:37.784Z,100419.75
2022-08-30T09:25:14.091Z,100414.19
2022-08-30T09:27:48.275Z,100417.03
2022-08-30T09:30:27.268Z,100409.47
2022-08-30T09:33:06.117Z,100404.69
2022-08-30T09:35:37.620Z,100400.47
2022-08-30T09:38:22.090Z,100400.25
2022-08-30T09:40:56.130Z,100401.72
2022-08-30T09:43:28.399Z,100399.34
2022-08-30T09:46:01.465Z,100393.66
2022-08-30T09:48:40.702Z,100396.88
2022-08-30T09:51:10.960Z,100382.34
2022-08-30T09:54:18.999Z,100386.16
2022-08-30T09:57:15.807Z,100375.78
2022-08-30T10:00:28.244Z,100381.34
2022-08-30T10:03:35.619Z,100381.28
2022-08-30T10:06:34.118Z,100375.41
2022-08-30T10:09:03.874Z,100364.25
2022-08-30T10:11:37.604Z,100359.63
2022-08-30T10:14:52.700Z,100358.56
2022-08-30T10:17:35.013Z,100361.00
2022-08-30T10:20:34.121Z,100352.59
2022-08-30T10:23:29.691Z,100351.91
2022-08-30T10:26:12.023Z,100351.16
2022-08-30T10:29:06.932Z,100342.34
2022-08-30T10:31:50.434Z,100344.72
2022-08-30T10:34:44.800Z,100334.66
2022-08-30T10:37:16.608Z,100332.03
2022-08-30T10:39:51.331Z,100330.97
2022-08-30T10:42:25.884Z,100338.88
2022-08-30T10:45:14.150Z,100337.28
2022-08-30T10:47:50.307Z,100324.88
2022-08-30T10:50:29.809Z,100332.13
2022-08-30T10:53:39.657Z,100319.69
2022-08-30T10:56:13.195Z,100317.84
2022-08-30T10:58:42.793Z,100318.44
2022-08-30T11:01:50.434Z,100320.44
2022-08-30T11:04:29.463Z,100313.81
2022-08-30T11:07:05.847Z,100311.22
2022-08-30T11:09:52.425Z,100313.19
2022-08-30T11:13:02.874Z,100304.25
2022-08-30T11:15:36.181Z,100302.88
2022-08-30T11:18:09.433Z,100302.75
2022-08-30T11:20:49.020Z,100297.41
2022-08-30T11:23:19.159Z,100293.75
2022-08-30T11:26:50.266Z,100305.53
2022-08-30T11:29:29.825Z,100293.50
2022-08-30T11:32:23.459Z,100296.16
2022-08-30T11:34:57.999Z,100297.53
2022-08-30T11:37:45.230Z,100294.84
2022-08-30T11:40:24.874Z,100302.06
2022-08-30T11:42:55.351Z,100293.75
2022-08-30T11:45:26.912Z,100298.31
2022-08-30T11:48:09.981Z,100292.44
2022-08-30T11:51:00.432Z,100286.84
2022-08-30T11:53:46.307Z,100282.53
2022-08-30T11:56:21.298Z,100287.56
2022-08-30T11:58:57.024Z,100282.22
2022-08-30T12:01:51.165Z,100276.53
2022-08-30T12:04:44.045Z,100268.81
2022-08-30T12:07:12.601Z,100265.09
2022-08-30T12:09:45.782Z,100266.72
2022-08-30T12:12:38.463Z,100258.88
2022-08-30T12:15:05.700Z,100264.19
2022-08-30T12:18:15.452Z,100263.19
2022-08-30T12:20:50.516Z,100264.84
2022-08-30T12:23:28.935Z,100262.97
2022-08-30T12:26:31.284Z,100260.78
2022-08-30T12:29:16.922Z,100256.66
2022-08-30T12:31:46.800Z,100243.13
2022-08-30T12:34:31.001Z,100236.69
2022-08-30T12:37:09.004Z,100249.53
2022-08-30T12:39:43.258Z,100233.75
2022-08-30T12:42:19.295Z,100243.31
2022-08-30T12:44:49.002Z,100239.56
2022-08-30T12:47:26.921Z,100226.41
2022-08-30T12:49:55.070Z,100226.41
2022-08-30T12:52:31.729Z,100232.63
2022-08-30T12:55:22.354Z,100225.66
2022-08-30T12:58:11.107Z,100229.47
2022-08-30T13:00:44.051Z,100229.09
2022-08-30T13:03:26.418Z,100216.28
2022-08-30T13:05:57.512Z,100219.09
2022-08-30T13:08:58.186Z,100213.78
2022-08-30T13:11:29.394Z,100213.78
2022-08-30T13:14:36.254Z,100210.06
2022-08-30T13:17:11.601Z,100212.47
2022-08-30T13:19:44.073Z,100216.59
2022-08-30T13:22:32.706Z,100207.16
2022-08-30T13:25:00.342Z,100210.94
2022-08-30T13:27:29.136Z,100198.69
2022-08-30T13:29:58.323Z,100197.13
2022-08-30T13:32:25.355Z,100190.00
2022-08-30T13:34:52.329Z,100184.66
2022-08-30T13:40:14.905Z,100190.22
2022-08-30T13:42:42.960Z,100182.88
2022-08-30T13:48:00.740Z,100182.97
2022-08-30T13:50:28.247Z,100177.84
2022-08-30T13:52:57.807Z,100167.47
2022-08-30T13:55:25.190Z,100169.81
2022-08-30T13:57:54.362Z,100170.56
2022-08-30T14:00:22.486Z,100159.63
2022-08-30T14:02:55.928Z,100154.75
2022-08-30T14:06:04.632Z,100158.78
2022-08-30T14:11:19.370Z,100152.75
2022-08-30T14:16:38.917Z,100152.09
2022-08-30T14:19:07.332Z,100146.19
2022-08-30T14:21:35.732Z,100149.94
2022-08-30T14:24:05.271Z,100141.06
2022-08-30T14:26:45.350Z,100139.94
2022-08-30T14:29:16.602Z,100130.81
2022-08-30T14:31:45.001Z,100134.88
2022-08-30T14:34:14.878Z,100127.63
2022-08-30T14:36:44.134Z,100124.72
2022-08-30T14:39:15.815Z,100119.88
2022-08-30T14:41:47.795Z,100117.75
2022-08-30T14:44:17.093Z,100125.59
2022-08-30T14:46:44.226Z,100119.44
2022-08-30T14:49:12.926Z,100123.50
2022-08-30T14:51:41.120Z,100124.09
2022-08-30T14:54:09.497Z,100110.59
2022-08-30T14:56:38.941Z,100113.94
2022-08-30T14:59:06.675Z,100116.75
2022-08-30T15:01:36.941Z,100105.56
2022-08-30T15:04:07.197Z,100114.84
2022-08-30T15:06:36.681Z,100115.16
2022-08-30T15:09:06.152Z,100101.72
2022-08-30T15:11:33.755Z,100103.03
2022-08-30T15:14:01.789Z,100102.22
2022-08-30T15:16:34.878Z,100106.06
2022-08-30T15:19:04.511Z,100105.53
2022-08-30T15:21:35.790Z,100112.66
2022-08-30T15:24:04.314Z,100101.94
2022-08-30T15:26:31.878Z,100103.16
2022-08-30T15:28:59.275Z,100103.00
2022-08-30T15:31:28.818Z,100105.31
2022-08-30T15:33:56.530Z,100108.59
2022-08-30T15:36:25.371Z,100090.13
2022-08-30T15:38:56.847Z,100099.31
2022-08-30T15:41:24.179Z,100098.94
2022-08-30T15:43:52.914Z,100102.41
2022-08-30T15:46:30.200Z,100100.00
2022-08-30T15:49:02.801Z,100099.44
2022-08-30T15:51:41.273Z,100090.28
2022-08-30T15:54:11.638Z,100081.25
2022-08-30T15:56:41.877Z,100079.41
2022-08-30T15:59:10.031Z,100085.13
2022-08-30T16:01:39.138Z,100086.84
2022-08-30T16:04:06.582Z,100078.53
2022-08-30T16:06:37.421Z,100072.19
2022-08-30T16:09:08.832Z,100079.38
2022-08-30T16:11:36.460Z,100074.63
2022-08-30T16:14:05.926Z,100082.66
2022-08-30T16:16:33.389Z,100084.25
2022-08-30T16:19:02.058Z,100090.69
2022-08-30T16:21:33.731Z,100089.63
2022-08-30T16:24:03.696Z,100089.09
2022-08-30T16:26:32.523Z,100076.22
2022-08-30T16:29:00.400Z,100092.28
2022-08-30T16:31:30.308Z,100091.22
2022-08-30T16:34:02.784Z,100085.34
2022-08-30T16:36:32.959Z,100084.78
2022-08-30T16:39:00.462Z,100088.56
2022-08-30T16:41:27.973Z,100078.91
2022-08-30T16:43:55.368Z,100075.69
2022-08-30T16:46:27.385Z,100072.22
2022-08-30T16:48:58.065Z,100081.59
2022-08-30T16:51:28.729Z,100076.25
2022-08-30T16:53:58.583Z,100072.75
2022-08-30T16:56:29.635Z,100068.75
2022-08-30T16:59:01.959Z,100072.19
2022-08-30T17:01:34.691Z,100075.94
2022-08-30T17:04:04.375Z,100075.94
2022-08-30T17:06:32.363Z,100091.19
2022-08-30T17:08:59.799Z,100096.81
2022-08-30T17:11:27.598Z,100089.88
2022-08-30T17:13:54.974Z,100098.16
2022-08-30T17:16:27.856Z,100106.63
2022-08-30T17:19:00.745Z,100108.72
2022-08-30T17:21:29.846Z,100092.66
2022-08-30T17:24:01.698Z,100099.03
2022-08-30T17:26:35.294Z,100103.38
2022-08-30T17:29:02.844Z,100102.63
2022-08-30T17:31:31.078Z,100114.13
2022-08-30T17:34:03.489Z,100118.75
2022-08-30T17:36:35.395Z,100118.38
2022-08-30T17:39:10.601Z,100119.56
2022-08-30T17:41:45.457Z,100128.31
2022-08-30T17:44:19.691Z,100131.22
2022-08-30T17:46:46.903Z,100142.41
2022-08-30T17:49:14.101Z,100139.06
2022-08-30T17:51:45.646Z,100141.09
2022-08-30T17:54:15.766Z,100135.31
2022-08-30T17:56:43.622Z,100137.53
2022-08-30T17:59:12.603Z,100138.50
2022-08-30T18:01:41.669Z,100140.59
2022-08-30T18:04:11.215Z,100154.72
2022-08-30T18:06:39.913Z,100146.59
2022-08-30T18:09:08.378Z,100156.84
2022-08-30T18:11:39.767Z,100149.94
2022-08-30T18:14:10.802Z,100155.72
2022-08-30T18:16:53.444Z,100158.28
2022-08-30T18:19:23.933Z,100161.34
2022-08-30T18:21:52.235Z,100161.44
2022-08-30T18:24:19.726Z,100161.59
2022-08-30T18:26:46.871Z,100163.59
2022-08-30T18:29:14.237Z,100173.28
2022-08-30T18:31:41.425Z,100172.47
2022-08-30T18:34:12.154Z,100181.91
2022-08-30T18:36:41.349Z,100182.69
2022-08-30T18:39:09.068Z,100185.69
2022-08-30T18:41:42.927Z,100189.81
2022-08-30T18:44:27.268Z,100179.91
2022-08-30T18:49:42.931Z,100190.16
2022-08-30T18:52:11.052Z,100195.44
2022-08-30T18:54:40.876Z,100195.16
2022-08-30T18:57:08.110Z,100193.38
2022-08-30T18:59:37.814Z,100211.50
2022-08-30T19:02:12.377Z,100212.72
2022-08-30T19:04:42.913Z,100216.25
2022-08-30T19:07:13.090Z,100214.97
2022-08-30T19:09:43.152Z,100205.53
2022-08-30T19:12:11.658Z,100220.19
2022-08-30T19:14:39.414Z,100223.00
2022-08-30T19:17:07.840Z,100218.81
2022-08-30T19:19:45.143Z,100207.38
2022-08-30T19:22:15.807Z,100207.63
2022-08-30T19:24:43.485Z,100209.22
2022-08-30T19:27:10.591Z,100208.91
2022-08-30T19:29:37.498Z,100220.16
2022-08-30T19:32:04.566Z,100224.53
2022-08-30T19:34:31.791Z,100225.81
2022-08-30T19:36:58.886Z,100225.53
2022-08-30T19:39:26.293Z,100225.31
2022-08-30T19:41:53.899Z,100241.06
2022-08-30T19:44:21.074Z,100240.78
2022-08-30T19:46:48.054Z,100236.16
2022-08-30T19:49:15.061Z,100243.19
2022-08-30T19:51:46.582Z,100241.59
2022-08-30T19:54:14.643Z,100236.28
2022-08-30T19:56:41.711Z,100236.88
2022-08-30T19:59:09.273Z,100232.63
2022-08-30T20:01:37.794Z,100237.13
2022-08-30T20:04:05.009Z,100235.50
2022-08-30T20:06:33.187Z,100239.22
2022-08-30T20:09:01.083Z,100240.34
2022-08-30T20:11:29.673Z,100238.72
2022-08-30T20:13:57.388Z,100231.13
2022-08-30T20:16:30.034Z,100243.06
2022-08-30T20:19:06.548Z,100245.38
2022-08-30T20:21:34.523Z,100249.63
2022-08-30T20:24:03.398Z,100243.97
2022-08-30T20:24:29.477Z,100190.63
2022-08-30T20:26:34.333Z,100259.53
2022-08-30T20:29:03.476Z,100252.63
2022-08-30T20:31:30.843Z,100256.00
2022-08-30T20:33:58.119Z,100254.66
2022-08-30T20:36:26.307Z,100255.78
2022-08-30T20:38:54.283Z,100261.75
2022-08-30T20:41:21.366Z,100256.44
2022-08-30T20:43:49.711Z,100256.97
2022-08-30T20:46:19.980Z,100259.31
2022-08-30T20:48:47.976Z,100250.03
2022-08-30T20:51:19.921Z,100253.81
2022-08-30T20:53:47.179Z,100239.94
2022-08-30T20:56:19.514Z,100239.53
2022-08-30T20:58:46.789Z,100234.06
2022-08-30T21:01:15.959Z,100221.28
2022-08-30T21:03:44.978Z,100218.22
2022-08-30T21:06:12.165Z,100220.41
2022-08-30T21:08:39.846Z,100218.41
2022-08-30T21:11:07.498Z,100230.81
2022-08-30T21:13:34.750Z,100233.84
2022-08-30T21:16:03.329Z,100249.28
2022-08-30T21:18:34.157Z,100252.66
2022-08-30T21:21:24.845Z,100251.03
2022-08-30T21:23:57.360Z,100250.69
2022-08-30T21:26:25.058Z,100257.19
2022-08-30T21:28:54.600Z,100251.25
2022-08-30T21:31:26.079Z,100253.22
2022-08-30T21:33:54.555Z,100258.00
2022-08-30T21:36:42.485Z,100254.25
2022-08-30T21:39:10.336Z,100265.81
2022-08-30T21:41:39.410Z,100265.88
2022-08-30T21:44:14.775Z,100265.75
2022-08-30T21:46:43.010Z,100275.66
2022-08-30T21:49:13.195Z,100277.72
2022-08-30T21:51:43.599Z,100286.63
2022-08-30T21:54:12.442Z,100284.66
2022-08-30T21:56:42.433Z,100287.88
2022-08-30T21:59:10.887Z,100278.25
2022-08-30T22:01:38.403Z,100274.44
2022-08-30T22:04:08.439Z,100260.81
2022-08-30T22:06:38.369Z,100265.28
2022-08-30T22:09:09.366Z,100271.44
2022-08-30T22:11:37.318Z,100274.69
2022-08-30T22:14:06.297Z,100278.81
2022-08-30T22:16:35.348Z,100276.16
2022-08-30T22:19:03.606Z,100283.53
2022-08-30T22:21:34.134Z,100290.69
2022-08-30T22:24:01.165Z,100288.16
2022-08-30T22:26:28.242Z,100289.06
2022-08-30T22:28:55.526Z,100287.81
2022-08-30T22:31:23.518Z,100294.03
2022-08-30T22:33:51.837Z,100290.78
2022-08-30T22:36:32.606Z,100292.63
2022-08-30T22:39:01.660Z,100297.97
2022-08-30T22:41:33.962Z,100297.56
2022-08-30T22:44:03.946Z,100300.63
2022-08-30T22:46:34.532Z,100300.19
2022-08-30T22:49:05.106Z,100312.72
2022-08-30T22:51:33.077Z,100312.56
2022-08-30T22:54:01.237Z,100310.81
2022-08-30T22:56:28.860Z,100315.00
2022-08-30T22:58:56.703Z,100317.66
2022-08-30T23:01:29.538Z,100314.66
2022-08-30T23:03:58.014Z,100320.69
2022-08-30T23:06:25.212Z,100334.69
2022-08-30T23:08:52.271Z,100340.72
2022-08-30T23:11:20.354Z,100353.97
2022-08-30T23:13:48.024Z,100368.47
2022-08-30T23:16:16.596Z,100396.44
2022-08-30T23:18:46.043Z,100408.81
2022-08-30T23:21:21.037Z,100420.53
2022-08-30T23:24:09.839Z,100424.25
2022-08-30T23:26:56.848Z,100433.44
2022-08-30T23:29:42.847Z,100442.22
2022-08-30T23:32:30.292Z,100452.97
2022-08-30T23:35:15.481Z,100464.56
2022-08-30T23:38:01.289Z,100482.63
2022-08-30T23:40:48.217Z,100481.81
2022-08-30T23:43:33.529Z,100487.78
2022-08-30T23:46:19.500Z,100482.88
2022-08-30T23:49:07.026Z,100479.41
2022-08-30T23:51:55.950Z,100468.34
2022-08-30T23:54:42.789Z,100461.63
2022-08-30T23:57:29.263Z,100452.84
